Austin, Kansas
Current Conditions -  °F | °C
As of 6:52 AM on Saturday 22 Nov 2014 (Local Time) from KCNU Reporting Station
Haze Haze  
Wind Chill: 55°   Ceiling: 600
Heat Index: 55°   Visibility: 6mi
Dew Point: 53°   Wind: 14mph
Humidity: 93%   Direction: 180°S
Pressure: 30"   Gusts: NA
Location:  37.6378°N, 95.4622°W
Report Text: KCNU 221252Z AUTO 18012KT 6SM BR OVC006 13/12 A3000 RMK AO2 SLP157 T01280117
Loading
Personal Weather Stations






























Interactive Weather Map New forecast layout! Learn more

10-Day Weather Forecast

Advertisements
Track Severe Weather on mobile